Flight Track Log - Related Links

Times and Time Zones

All times are in EDT time to prevent confusion due to time zone crossing. See the FDX1347 flight status page for this flight to view local times or setup timezone preferences in your user account.

Time Position Orientation Groundspeed Altitude Reporting Facility
EDT Latitude Longitude Course Direction KTS MPH feet Rate Location/Type
Fri 10:24:53 PM 42.7256 -73.8108 263° West 165 190 1,600  Level Boston Center
Fri 10:26:20 PM 42.7161 -73.9125 263° West 244 281 5,000 3,020 Climbing Boston Center
Fri 10:27:20 PM 42.6753 -73.9961 236° Southwest 244 281 9,000 3,350 Climbing Boston Center
Fri 10:28:20 PM 42.6239 -74.0881 233° Southwest 261 300 11,700 3,000 Climbing Boston Center
Fri 10:29:20 PM 42.5617 -74.2103 235° Southwest 342 394 15,000 3,100 Climbing Boston Center
Fri 10:30:20 PM 42.5100 -74.3131 236° Southwest 377 434 17,900 2,345 Climbing Boston Center
Fri 10:36:17 PM 42.1320 -75.1000 236° Southwest 409 471 31,300 2,269 Climbing FlightAware ADS-B
Fri 10:37:02 PM 42.1000 -75.2010 247° West 395 455 33,100 2,188 Climbing FlightAware ADS-B
Fri 10:37:42 PM 42.0700 -75.2930 246° West 392 451 34,400 1,800 Climbing FlightAware ADS-B
Fri 10:38:22 PM 42.0370 -75.3780 242° Southwest 395 455 35,500 1,391 Climbing FlightAware ADS-B
Fri 10:38:51 PM 42.0089 -75.4474 241° Southwest 397 457 36,000 484 Climbing FlightAware ADS-B
Fri 10:39:24 PM 41.9796 -75.5190 241° Southwest 399 459 36,000 818 Level FlightAware ADS-B
Fri 10:39:57 PM 41.9503 -75.5902 241° Southwest 396 456 36,900 1,333 Climbing FlightAware ADS-B
Fri 10:40:27 PM 41.9290 -75.6420 241° Southwest 395 455 37,400 1,138 Climbing FlightAware ADS-B
Fri 10:40:55 PM 41.8986 -75.7148 241° Southwest 399 459 38,000 1,034 Climbing FlightAware ADS-B
Fri 10:41:25 PM 41.8714 -75.7799 241° Southwest 402 463 38,400 1,082 Climbing FlightAware ADS-B
Fri 10:41:56 PM 41.8434 -75.8469 241° Southwest 398 458 39,100 1,161 Climbing FlightAware ADS-B
Fri 10:42:27 PM 41.8160 -75.9113 240° Southwest 398 458 39,600 831 Climbing FlightAware ADS-B
Fri 10:43:01 PM 41.7857 -75.9844 241° Southwest 399 459 40,000 375 Climbing FlightAware ADS-B
Fri 10:43:31 PM 41.7583 -76.0495 241° Southwest 403 464 40,000  Level FlightAware ADS-B
Fri 10:44:01 PM 41.7303 -76.1178 241° Southwest 410 472 40,000  Level FlightAware ADS-B
Fri 10:44:31 PM 41.7021 -76.1844 240° Southwest 412 474 40,000  Level FlightAware ADS-B
Fri 10:45:02 PM 41.6734 -76.2507 240° Southwest 410 472 40,000  Level FlightAware ADS-B
Fri 10:45:33 PM 41.6446 -76.3206 241° Southwest 403 464 40,000  Level FlightAware ADS-B
Fri 10:46:03 PM 41.6172 -76.3854 241° Southwest 401 461 40,000  Level FlightAware ADS-B
Fri 10:46:34 PM 41.5885 -76.4517 240° Southwest 398 458 40,000  Level FlightAware ADS-B
Fri 10:47:07 PM 41.5594 -76.5200 240° Southwest 397 457 40,000  Level FlightAware ADS-B
Fri 10:47:38 PM 41.5311 -76.5859 240° Southwest 399 459 40,000  Level FlightAware ADS-B
Fri 10:48:08 PM 41.5028 -76.6526 240° Southwest 405 466 40,000  Level FlightAware ADS-B
Fri 10:48:39 PM 41.4739 -76.7204 240° Southwest 411 473 40,000  Level FlightAware ADS-B
Fri 10:49:10 PM 41.4447 -76.7889 240° Southwest 416 479 40,000  Level FlightAware ADS-B
Fri 10:49:44 PM 41.4116 -76.8646 240° Southwest 418 481 40,000  Level FlightAware ADS-B
Fri 10:50:18 PM 41.3793 -76.9406 240° Southwest 419 482 40,000  Level FlightAware ADS-B
Fri 10:50:49 PM 41.3489 -77.0098 240° Southwest 420 483 40,000  Level FlightAware ADS-B
Fri 10:51:19 PM 41.3197 -77.0769 240° Southwest 420 483 40,000  Level FlightAware ADS-B
Fri 10:51:50 PM 41.2897 -77.1462 240° Southwest 419 482 40,000  Level FlightAware ADS-B
Fri 10:52:26 PM 41.2552 -77.2243 240° Southwest 420 483 40,000  Level FlightAware ADS-B
Fri 10:53:04 PM 41.2178 -77.3109 240° Southwest 419 482 40,000  Level FlightAware ADS-B
Fri 10:53:46 PM 41.1775 -77.4032 240° Southwest 414 476 40,000  Level FlightAware ADS-B
Fri 10:54:22 PM 41.1433 -77.4795 239° Southwest 411 473 40,000  Level FlightAware ADS-B
Fri 10:54:59 PM 41.1072 -77.5620 240° Southwest 409 471 40,000  Level FlightAware ADS-B
Fri 10:55:46 PM 41.0624 -77.6633 240° Southwest 408 470 40,000  Level FlightAware ADS-B
Fri 10:56:37 PM 41.0210 -77.7580 240° Southwest 405 466 40,000  Level FlightAware ADS-B
Fri 10:57:22 PM 40.9780 -77.8540 239° Southwest 404 465 40,000  Level FlightAware ADS-B
Fri 10:57:52 PM 40.9431 -77.9326 240° Southwest 406 467 40,000  Level FlightAware ADS-B
Fri 10:58:47 PM 40.8960 -78.0340 238° Southwest 407 468 40,000  Level FlightAware ADS-B
Fri 10:59:27 PM 40.8530 -78.1170 236° Southwest 408 470 40,000  Level FlightAware ADS-B
Fri 11:00:07 PM 40.8110 -78.1990 236° Southwest 408 470 40,000  Level FlightAware ADS-B
Fri 11:00:52 PM 40.7670 -78.2860 236° Southwest 409 471 40,000  Level FlightAware ADS-B
Fri 11:01:32 PM 40.7230 -78.3740 237° Southwest 411 473 40,000  Level FlightAware ADS-B
Fri 11:02:17 PM 40.6760 -78.4650 236° Southwest 412 474 40,000  Level FlightAware ADS-B
Fri 11:02:52 PM 40.6370 -78.5430 237° Southwest 412 474 40,000  Level FlightAware ADS-B
Fri 11:03:37 PM 40.5910 -78.6320 236° Southwest 412 474 40,000  Level FlightAware ADS-B
Fri 11:04:17 PM 40.5480 -78.7170 236° Southwest 413 475 40,000  Level FlightAware ADS-B
Fri 11:05:02 PM 40.4990 -78.8130 236° Southwest 414 476 40,000  Level FlightAware ADS-B
Fri 11:05:42 PM 40.4550 -78.8980 236° Southwest 415 478 40,000  Level FlightAware ADS-B
Fri 11:06:27 PM 40.4070 -78.9900 236° Southwest 416 479 40,000  Level FlightAware ADS-B
Fri 11:07:07 PM 40.3680 -79.0650 236° Southwest 418 481 40,000  Level FlightAware ADS-B
Fri 11:07:52 PM 40.3080 -79.1810 236° Southwest 421 484 40,000  Level FlightAware ADS-B
Fri 11:08:32 PM 40.2650 -79.2630 236° Southwest 421 484 40,000  Level FlightAware ADS-B
Fri 11:09:12 PM 40.2200 -79.3470 235° Southwest 422 486 40,000  Level FlightAware ADS-B
Fri 11:09:57 PM 40.1710 -79.4420 236° Southwest 422 486 40,000  Level FlightAware ADS-B
Fri 11:10:37 PM 40.1270 -79.5240 235° Southwest 424 488 40,000  Level FlightAware ADS-B
Fri 11:11:22 PM 40.0760 -79.6210 236° Southwest 424 488 40,000  Level FlightAware ADS-B
Fri 11:12:02 PM 40.0310 -79.7050 235° Southwest 425 489 40,000  Level FlightAware ADS-B
Fri 11:12:42 PM 39.9860 -79.7920 236° Southwest 425 489 40,000  Level FlightAware ADS-B
Fri 11:13:27 PM 39.9400 -79.8780 235° Southwest 425 489 40,000  Level FlightAware ADS-B
Fri 11:14:07 PM 39.8920 -79.9670 235° Southwest 427 491 40,000  Level FlightAware ADS-B
Fri 11:14:42 PM 39.8540 -80.0380 235° Southwest 428 493 40,000  Level FlightAware ADS-B
Fri 11:17:27 PM 39.6640 -80.3910 235° Southwest 434 499 40,000  Level FlightAware ADS-B
Fri 11:18:07 PM 39.6180 -80.4740 234° Southwest 435 501 40,000  Level FlightAware ADS-B
Fri 11:18:52 PM 39.5660 -80.5700 235° Southwest 436 502 40,000  Level FlightAware ADS-B
Fri 11:19:32 PM 39.5180 -80.6570 234° Southwest 438 504 40,000  Level FlightAware ADS-B
Fri 11:20:12 PM 39.4730 -80.7410 235° Southwest 439 505 40,000  Level FlightAware ADS-B
Fri 11:20:52 PM 39.4240 -80.8310 235° Southwest 441 507 40,000  Level FlightAware ADS-B
Fri 11:21:32 PM 39.3760 -80.9170 234° Southwest 440 506 40,000  Level FlightAware ADS-B
Fri 11:22:17 PM 39.3220 -81.0160 235° Southwest 440 506 40,000  Level FlightAware ADS-B
Fri 11:22:57 PM 39.2760 -81.0990 234° Southwest 439 505 40,000  Level FlightAware ADS-B
Fri 11:23:42 PM 39.2240 -81.1920 234° Southwest 438 504 40,000  Level FlightAware ADS-B
Fri 11:24:27 PM 39.1690 -81.2900 234° Southwest 437 503 40,000  Level FlightAware ADS-B
Fri 11:25:07 PM 39.1220 -81.3740 234° Southwest 437 503 40,000  Level FlightAware ADS-B
Fri 11:25:47 PM 39.0760 -81.4570 234° Southwest 436 502 40,000  Level FlightAware ADS-B
Fri 11:26:32 PM 39.0220 -81.5530 234° Southwest 434 499 40,000  Level FlightAware ADS-B
Fri 11:27:12 PM 38.9740 -81.6370 234° Southwest 434 499 40,000  Level FlightAware ADS-B
Fri 11:27:57 PM 38.9220 -81.7300 234° Southwest 434 499 40,000  Level FlightAware ADS-B
Fri 11:28:37 PM 38.8760 -81.8120 234° Southwest 433 498 40,000  Level FlightAware ADS-B
Fri 11:29:22 PM 38.8210 -81.9070 233° Southwest 433 498 40,000  Level FlightAware ADS-B
Fri 11:30:02 PM 38.7730 -81.9920 234° Southwest 433 498 40,000  Level FlightAware ADS-B
Fri 11:30:42 PM 38.7270 -82.0740 234° Southwest 433 498 40,000  Level FlightAware ADS-B
Fri 11:31:27 PM 38.6790 -82.1680 237° Southwest 432 497 40,000  Level FlightAware ADS-B
Fri 11:32:07 PM 38.6340 -82.2550 237° Southwest 431 496 40,000  Level FlightAware ADS-B
Fri 11:32:52 PM 38.5830 -82.3500 236° Southwest 430 495 40,000  Level FlightAware ADS-B
Fri 11:33:32 PM 38.5380 -82.4360 236° Southwest 428 493 40,000  Level FlightAware ADS-B
Fri 11:33:38 PM 38.5304 -82.4509 237° Southwest 429 494 40,000  Level FlightAware ADS-B
Fri 11:34:17 PM 38.4900 -82.5260 236° Southwest 427 491 40,000  Level FlightAware ADS-B
Fri 11:34:57 PM 38.4450 -82.6090 235° Southwest 427 491 40,000  Level FlightAware ADS-B
Fri 11:35:37 PM 38.4010 -82.6950 237° Southwest 424 488 40,000  Level FlightAware ADS-B
Fri 11:36:22 PM 38.3510 -82.7850 235° Southwest 423 487 40,000  Level FlightAware ADS-B
Fri 11:37:02 PM 38.3070 -82.8680 236° Southwest 422 486 40,000  Level FlightAware ADS-B
Fri 11:37:47 PM 38.2580 -82.9600 236° Southwest 421 484 40,000  Level FlightAware ADS-B
Fri 11:38:27 PM 38.2120 -83.0460 236° Southwest 421 484 40,000  Level FlightAware ADS-B
Fri 11:39:07 PM 38.1680 -83.1270 235° Southwest 421 484 40,000  Level FlightAware ADS-B
Fri 11:39:47 PM 38.1240 -83.2090 236° Southwest 419 482 40,000  Level FlightAware ADS-B
Fri 11:40:32 PM 38.0800 -83.2880 235° Southwest 419 482 40,000  Level FlightAware ADS-B
Fri 11:41:12 PM 38.0430 -83.3560 235° Southwest 419 482 40,000  Level FlightAware ADS-B
Fri 11:41:52 PM 37.9910 -83.4520 236° Southwest 414 476 40,000  Level FlightAware ADS-B
Fri 11:42:27 PM 37.9540 -83.5200 235° Southwest 415 478 40,000  Level FlightAware ADS-B
Fri 11:43:12 PM 37.9050 -83.6100 235° Southwest 415 478 40,000  Level FlightAware ADS-B
Fri 11:44:02 PM 37.8580 -83.6940 235° Southwest 415 478 40,000  Level FlightAware ADS-B
Fri 11:44:42 PM 37.8020 -83.7950 235° Southwest 414 476 40,000  Level FlightAware ADS-B
Fri 11:45:17 PM 37.7650 -83.8650 236° Southwest 413 475 40,000  Level FlightAware ADS-B
Fri 11:46:07 PM 37.7100 -83.9620 234° Southwest 412 474 40,000  Level FlightAware ADS-B
Fri 11:46:57 PM 37.6590 -84.0540 235° Southwest 412 474 40,000  Level FlightAware ADS-B
Fri 11:47:47 PM 37.6000 -84.1600 235° Southwest 411 473 40,000  Level FlightAware ADS-B
Fri 11:48:27 PM 37.5580 -84.2340 234° Southwest 411 473 40,000  Level FlightAware ADS-B
Fri 11:48:37 PM 37.5429 -84.2620 236° Southwest 411 473 40,000  Level FlightAware ADS-B
Fri 11:49:10 PM 37.5067 -84.3265 235° Southwest 411 473 40,000  Level FlightAware ADS-B
Fri 11:49:45 PM 37.4685 -84.3949 235° Southwest 411 473 40,000  Level FlightAware ADS-B
Fri 11:50:15 PM 37.4354 -84.4532 234° Southwest 410 472 40,000  Level FlightAware ADS-B
Fri 11:50:47 PM 37.3999 -84.5176 235° Southwest 410 472 40,000  Level FlightAware ADS-B
Fri 11:51:17 PM 37.3668 -84.5760 235° Southwest 410 472 40,000  Level FlightAware ADS-B
Fri 11:51:47 PM 37.3380 -84.6270 235° Southwest 409 471 40,000  Level FlightAware ADS-B
Fri 11:51:49 PM 37.3317 -84.6381 234° Southwest 410 472 40,000  Level FlightAware ADS-B
Fri 11:52:27 PM 37.2920 -84.7080 234° Southwest 408 470 40,000  Level FlightAware ADS-B
Fri 11:53:07 PM 37.2490 -84.7830 234° Southwest 407 468 40,000  Level FlightAware ADS-B
Fri 11:53:21 PM 37.2309 -84.8155 235° Southwest 407 468 40,000  Level FlightAware ADS-B
Fri 11:53:51 PM 37.1979 -84.8730 234° Southwest 407 468 40,000  Level FlightAware ADS-B
Fri 11:54:21 PM 37.1650 -84.9303 234° Southwest 406 467 40,000  Level FlightAware ADS-B
Fri 11:54:55 PM 37.1282 -84.9954 235° Southwest 404 465 40,000  Level FlightAware ADS-B
Fri 11:55:29 PM 37.0918 -85.0580 234° Southwest 404 465 40,000  Level FlightAware ADS-B
Fri 11:56:03 PM 37.0544 -85.1246 235° Southwest 405 466 40,000  Level FlightAware ADS-B
Fri 11:56:36 PM 37.0182 -85.1873 234° Southwest 405 466 40,000  Level FlightAware ADS-B
Fri 11:57:09 PM 36.9824 -85.2481 234° Southwest 405 466 40,000  Level FlightAware ADS-B
Fri 11:57:56 PM 36.9308 -85.3392 235° Southwest 404 465 40,000  Level FlightAware ADS-B
Fri 11:58:44 PM 36.8783 -85.4297 234° Southwest 403 464 40,000  Level FlightAware ADS-B
Sat 12:00:07 AM 36.7900 -85.5810 234° Southwest 399 459 40,000  Level FlightAware ADS-B
Sat 12:00:21 AM 36.7727 -85.6111 234° Southwest 399 459 40,000  Level FlightAware ADS-B
Sat 12:00:51 AM 36.7400 -85.6668 234° Southwest 398 458 40,000  Level FlightAware ADS-B
Sat 12:01:22 AM 36.7071 -85.7225 234° Southwest 398 458 40,000  Level FlightAware ADS-B
Sat 12:01:52 AM 36.6741 -85.7798 234° Southwest 397 457 40,000  Level FlightAware ADS-B
Sat 12:02:22 AM 36.6412 -85.8352 234° Southwest 397 457 40,000  Level FlightAware ADS-B
Sat 12:02:53 AM 36.6085 -85.8904 234° Southwest 397 457 40,000  Level FlightAware ADS-B
Sat 12:03:29 AM 36.5691 -85.9587 234° Southwest 397 457 40,000  Level FlightAware ADS-B
Sat 12:03:59 AM 36.5360 -86.0141 233° Southwest 398 458 40,000  Level FlightAware ADS-B
Sat 12:04:29 AM 36.5032 -86.0693 234° Southwest 398 458 40,000  Level FlightAware ADS-B
Sat 12:05:02 AM 36.4690 -86.1270 234° Southwest 398 458 40,000  Level FlightAware ADS-B
Sat 12:05:42 AM 36.4250 -86.2020 234° Southwest 399 459 40,000  Level FlightAware ADS-B
Sat 12:06:27 AM 36.3770 -86.2820 233° Southwest 400 460 40,000  Level FlightAware ADS-B
Sat 12:07:09 AM 36.3288 -86.3631 234° Southwest 401 461 40,000  Level FlightAware ADS-B
Sat 12:07:44 AM 36.2893 -86.4298 234° Southwest 403 464 40,000  Level FlightAware ADS-B
Sat 12:08:15 AM 36.2549 -86.4874 233° Southwest 404 465 40,000  Level FlightAware ADS-B
Sat 12:08:45 AM 36.2214 -86.5433 233° Southwest 405 466 40,000  Level FlightAware ADS-B
Sat 12:09:16 AM 36.1871 -86.6012 234° Southwest 407 468 40,000  Level FlightAware ADS-B
Sat 12:09:57 AM 36.1430 -86.6770 234° Southwest 407 468 40,000  Level FlightAware ADS-B
Sat 12:10:37 AM 36.1130 -86.7600 246° West 408 470 40,000 -333 Level FlightAware ADS-B
Sat 12:11:09 AM 36.0891 -86.8341 248° West 409 471 39,600 -857 Descending FlightAware ADS-B
Sat 12:11:40 AM 36.0681 -86.9003 249° West 413 475 39,100 -984 Descending FlightAware ADS-B
Sat 12:12:10 AM 36.0466 -86.9681 249° West 411 473 38,600 -952 Descending FlightAware ADS-B
Sat 12:12:43 AM 36.0238 -87.0404 249° West 414 476 38,100 -938 Descending FlightAware ADS-B
Sat 12:13:14 AM 36.0020 -87.1087 248° West 418 481 37,600 -1,031 Descending FlightAware ADS-B
Sat 12:13:47 AM 35.9782 -87.1826 248° West 424 488 37,000 -1,031 Descending FlightAware ADS-B
Sat 12:14:18 AM 35.9557 -87.2504 248° West 429 494 36,500 -914 Descending FlightAware ADS-B
Sat 12:15:32 AM 35.9030 -87.4150 248° West 437 503 35,400 -958 Descending FlightAware ADS-B
Sat 12:16:17 AM 35.8670 -87.5250 248° West 444 511 34,600 -988 Descending FlightAware ADS-B
Sat 12:16:57 AM 35.8360 -87.6200 248° West 450 518 34,000 -918 Descending FlightAware ADS-B
Sat 12:17:42 AM 35.8020 -87.7250 248° West 453 521 33,300 -632 Descending FlightAware ADS-B
Sat 12:18:32 AM 35.7640 -87.8390 248° West 453 521 33,000 -189 Descending FlightAware ADS-B
Sat 12:19:17 AM 35.7270 -87.9540 248° West 450 518 33,000  Level FlightAware ADS-B
Sat 12:19:52 AM 35.7020 -88.0260 247° West 450 518 33,000  Level FlightAware ADS-B
Sat 12:20:42 AM 35.6670 -88.1260 247° West 450 518 33,000  Level FlightAware ADS-B
Sat 12:21:22 AM 35.6400 -88.2060 247° West 450 518 33,000  Level FlightAware ADS-B
Sat 12:22:02 AM 35.6120 -88.2860 247° West 450 518 33,000  Level FlightAware ADS-B
Sat 12:22:42 AM 35.5840 -88.3670 247° West 450 518 33,000  Level FlightAware ADS-B
Sat 12:23:22 AM 35.5570 -88.4470 247° West 450 518 33,000  Level FlightAware ADS-B
Sat 12:24:12 AM 35.5220 -88.5470 247° West 450 518 33,000  Level FlightAware ADS-B
Sat 12:24:52 AM 35.4950 -88.6270 248° West 450 518 33,000  Level FlightAware ADS-B
Sat 12:25:32 AM 35.4670 -88.7070 247° West 450 518 33,000  Level FlightAware ADS-B
Sat 12:26:12 AM 35.4390 -88.7870 247° West 450 518 33,000  Level FlightAware ADS-B
Sat 12:27:02 AM 35.4050 -88.8870 247° West 450 518 33,000  Level FlightAware ADS-B
Sat 12:27:42 AM 35.3770 -88.9670 247° West 450 518 33,000  Level FlightAware ADS-B
Sat 12:28:22 AM 35.3490 -89.0470 247° West 450 518 33,000  Level FlightAware ADS-B
Sat 12:29:02 AM 35.3220 -89.1260 247° West 450 518 33,000 -19,457 Level FlightAware ADS-B
Sat 12:29:32 AM 35.0608 -89.0328 247° West 319 367 10,300 -15,800 Descending Memphis Center
Sat 12:30:32 AM 35.0325 -89.1144 247° West 294 338 9,300 -1,100 Descending Memphis Center
Sat 12:31:32 AM 35.0375 -89.2031 274° West 259 298 8,100 -1,300 Descending Memphis Center
Sat 12:32:32 AM 35.0403 -89.2894 272° West 259 298 6,700 -1,050 Descending Memphis Center
Sat 12:33:32 AM 35.0431 -89.3731 272° West 252 290 6,000 -700 Descending Memphis Center
Sat 12:34:32 AM 35.0436 -89.4464 271° West 234 269 5,300 -900 Descending Memphis Center
Sat 12:35:32 AM 35.0461 -89.5150 273° West 219 252 4,200 -650 Descending Memphis Center
Sat 12:36:32 AM 35.0486 -89.5858 272° West 213 245 4,000 -100 Descending Memphis Center
Sat 12:37:32 AM 35.0511 -89.6469 273° West 200 230 4,000  Level Memphis Center
Sat 12:38:32 AM 35.0514 -89.7078 270° West 183 211 4,000 -400 Level Memphis Center
Sat 12:39:32 AM 35.0539 -89.7686 273° West 177 204 3,200 -850 Descending Memphis Center
Sat 12:40:32 AM 35.0564 -89.8294 273° West 177 204 2,300 -900 Descending Memphis Center
Sat 12:41:32 AM 35.0586 -89.8828 273° West 170 196 1,400 -805 Descending Memphis Center
Sat 12:41:54 AM 35.0500 -89.9000 239° Southwest 123 142 1,200 -578 Descending KMEM
Sat 12:42:55 AM 35.0500 -89.9333 270° West 124 143 600 -590 Descending KMEM
Sat 12:44:00 AM 35.0333 -89.9667 270° West  Level FlightAware Approximate
Sat 12:51:00 AM 35.0424 -89.9767 270° West  Level Estimated
Sat 12:53:00 AM 35.0424 -89.9767 270° West  Level Estimated
Sat 12:54:00 AM 35.0424 -89.9767 270° West  Level Estimated

Login

Don't have an account? Register now (free) for customized features, flight alerts, and more!